Time;durP1;ratioP1;P1;durP2;ratioP2;P2;SDS_P1;SDS_P2;PMS_P1;PMS_P2;Temp;Humidity;BMP_temperature;BMP_pressure;BME280_temperature;BME280_humidity;BME280_pressure;Samples;Min_cycle;Max_cycle;Signal;HPM_P1;HPM_P2
2021/07/21 00:01:04;;;;;;;7.17;5.40;;;16.20;99.90;;;;;;5017276;28;21009;-79
2021/07/21 00:03:32;;;;;;;9.83;5.40;;;16.10;99.90;;;;;;5016184;28;20822;-79
2021/07/21 00:06:00;;;;;;;8.10;5.70;;;16.20;99.90;;;;;;5016502;28;20439;-80
2021/07/21 00:08:28;;;;;;;6.67;5.67;;;16.30;99.90;;;;;;5017227;28;20425;-80
2021/07/21 00:13:40;;;;;;;6.53;4.80;;;16.30;99.90;;;;;;5018641;28;20451;-80
2021/07/21 00:16:14;;;;;;;5.50;4.97;;;16.30;99.90;;;;;;5018430;28;20438;-80
2021/07/21 00:18:51;;;;;;;10.30;5.20;;;16.20;99.90;;;;;;5034974;28;20407;-80
2021/07/21 00:21:24;;;;;;;5.20;4.70;;;16.10;99.90;;;;;;5017244;28;20445;-78
2021/07/21 00:23:53;;;;;;;6.20;5.60;;;16.10;99.90;;;;;;5018513;28;20493;-78
2021/07/21 00:26:21;;;;;;;9.20;5.67;;;16.10;99.90;;;;;;4999833;28;20563;-78
2021/07/21 00:28:50;;;;;;;7.80;5.47;;;16.10;99.90;;;;;;5015333;28;20807;-78
2021/07/21 00:31:18;;;;;;;7.63;6.30;;;16.00;99.90;;;;;;5029269;28;20412;-79
2021/07/21 00:33:48;;;;;;;5.93;5.20;;;16.00;99.90;;;;;;5014611;28;20487;-78
2021/07/21 00:36:17;;;;;;;8.90;6.47;;;16.00;99.90;;;;;;5014076;28;20428;-78
2021/07/21 00:38:46;;;;;;;6.57;5.93;;;16.00;99.90;;;;;;4996524;28;20769;-78
2021/07/21 00:41:16;;;;;;;8.20;6.00;;;16.00;99.90;;;;;;5014473;28;20755;-79
2021/07/21 00:43:45;;;;;;;6.50;5.80;;;15.90;99.90;;;;;;5030857;28;20431;-79
2021/07/21 00:46:14;;;;;;;6.67;5.97;;;16.00;99.90;;;;;;5015852;28;21042;-78
2021/07/21 00:48:42;;;;;;;7.37;5.97;;;16.10;99.90;;;;;;5016955;28;20441;-78
2021/07/21 00:51:11;;;;;;;10.20;6.10;;;16.10;99.90;;;;;;5018415;28;20415;-79
2021/07/21 00:53:39;;;;;;;9.30;6.90;;;16.10;99.90;;;;;;5034003;28;20472;-79
2021/07/21 00:56:13;;;;;;;9.60;8.13;;;15.90;99.90;;;;;;5048889;28;20410;-79
2021/07/21 00:58:41;;;;;;;7.70;6.57;;;15.80;99.90;;;;;;5034399;28;20416;-79
2021/07/21 01:01:12;;;;;;;7.67;6.77;;;15.80;99.90;;;;;;5035518;28;20413;-79
2021/07/21 01:03:42;;;;;;;10.60;6.00;;;15.80;99.90;;;;;;5047000;28;20449;-79
2021/07/21 01:06:11;;;;;;;8.13;6.20;;;15.80;99.90;;;;;;5028613;28;20435;-78
2021/07/21 01:08:43;;;;;;;8.07;6.43;;;15.90;99.90;;;;;;5024856;28;20421;-78
2021/07/21 01:11:26;;;;;;;7.57;5.77;;;15.80;99.90;;;;;;5034736;28;20422;-80
2021/07/21 01:14:01;;;;;;;6.57;5.00;;;15.90;99.90;;;;;;5035661;28;20440;-79
2021/07/21 01:16:34;;;;;;;7.67;6.07;;;15.80;99.90;;;;;;5048165;28;20443;-79
2021/07/21 01:19:14;;;;;;;7.90;6.63;;;15.80;99.90;;;;;;5030550;28;20441;-79
2021/07/21 01:22:14;;;;;;;6.67;5.97;;;15.80;99.90;;;;;;5035101;28;20397;-77
2021/07/21 01:25:05;;;;;;;10.20;6.63;;;15.60;99.90;;;;;;5037928;28;20844;-77
2021/07/21 01:27:42;;;;;;;8.37;6.00;;;15.50;99.90;;;;;;5038332;28;20448;-77
2021/07/21 01:30:14;;;;;;;10.10;6.53;;;15.70;99.90;;;;;;5038457;28;20421;-76
2021/07/21 01:32:56;;;;;;;8.83;6.20;;;15.70;99.90;;;;;;5038472;28;20540;-78
2021/07/21 01:35:27;;;;;;;7.60;6.87;;;15.80;99.90;;;;;;5039106;28;20425;-77
2021/07/21 01:37:59;;;;;;;10.90;7.30;;;15.90;99.90;;;;;;5055405;28;20425;-78
2021/07/21 01:40:35;;;;;;;6.93;6.13;;;15.80;99.90;;;;;;5055648;28;20439;-76
2021/07/21 01:43:11;;;;;;;11.27;6.90;;;15.70;99.90;;;;;;5055385;28;20476;-76
2021/07/21 01:45:44;;;;;;;9.30;6.90;;;15.70;99.90;;;;;;5038901;28;20464;-77
2021/07/21 01:48:15;;;;;;;8.40;6.80;;;15.60;99.90;;;;;;5055000;28;20496;-77
2021/07/21 01:50:45;;;;;;;8.40;7.03;;;15.60;99.90;;;;;;5055350;28;20395;-76
2021/07/21 01:53:14;;;;;;;9.37;7.03;;;15.50;99.90;;;;;;5055433;28;20494;-77
2021/07/21 01:55:43;;;;;;;8.43;6.10;;;15.40;99.90;;;;;;5055234;28;20468;-78
2021/07/21 01:58:14;;;;;;;9.30;6.70;;;15.50;99.90;;;;;;5037210;28;20441;-79
2021/07/21 02:00:59;;;;;;;8.33;6.00;;;15.70;99.90;;;;;;5051356;28;20429;-80
2021/07/21 02:03:32;;;;;;;10.33;7.27;;;15.50;99.90;;;;;;5034612;28;20465;-79
2021/07/21 02:06:03;;;;;;;8.23;6.93;;;15.60;99.90;;;;;;5018261;28;20973;-81
2021/07/21 02:08:32;;;;;;;8.47;6.00;;;15.80;99.90;;;;;;5017312;28;20462;-82
2021/07/21 02:11:13;;;;;;;11.50;7.27;;;15.80;99.90;;;;;;5016774;28;20439;-81
2021/07/21 02:13:44;;;;;;;6.90;5.70;;;15.90;99.90;;;;;;5033874;28;20556;-80
2021/07/21 02:16:26;;;;;;;10.63;6.03;;;15.90;99.90;;;;;;5034131;28;20527;-82
2021/07/21 02:18:55;;;;;;;12.13;7.57;;;15.90;99.90;;;;;;5001071;28;20441;-82
2021/07/21 02:21:32;;;;;;;10.40;6.33;;;15.90;99.90;;;;;;5035635;28;20556;-82
2021/07/21 02:24:01;;;;;;;11.47;6.57;;;16.00;99.90;;;;;;5020343;28;20426;-80
2021/07/21 02:26:56;;;;;;;8.70;7.50;;;16.20;99.90;;;;;;5009684;28;20527;-82
2021/07/21 02:29:26;;;;;;;10.80;7.20;;;16.30;99.90;;;;;;5035677;28;20494;-80
2021/07/21 02:32:07;;;;;;;9.50;5.73;;;16.30;99.90;;;;;;5019384;28;20418;-82
2021/07/21 02:34:35;;;;;;;7.73;6.07;;;16.20;99.90;;;;;;5035260;28;20794;-81
2021/07/21 02:37:05;;;;;;;7.90;6.30;;;16.20;99.90;;;;;;5020687;28;20402;-83
2021/07/21 02:39:47;;;;;;;7.27;6.20;;;16.20;99.90;;;;;;5021597;28;20431;-82
2021/07/21 02:42:17;;;;;;;8.63;5.80;;;16.20;99.90;;;;;;5031223;28;20402;-78
2021/07/21 02:44:49;;;;;;;7.57;5.73;;;16.50;99.90;;;;;;5037844;28;20413;-78
2021/07/21 02:47:20;;;;;;;8.47;6.13;;;16.50;99.90;;;;;;5038187;28;20445;-79
2021/07/21 02:49:57;;;;;;;8.87;6.73;;;16.50;99.90;;;;;;5037642;28;20421;-78
2021/07/21 02:52:35;;;;;;;7.60;6.60;;;16.40;99.90;;;;;;5024863;28;20464;-80
2021/07/21 02:55:17;;;;;;;8.13;6.73;;;16.50;99.90;;;;;;5030632;28;20427;-79
2021/07/21 02:57:55;;;;;;;13.50;7.00;;;16.40;99.90;;;;;;5014569;28;20408;-81
2021/07/21 03:00:28;;;;;;;9.03;7.40;;;16.50;99.90;;;;;;5030617;28;20428;-79
2021/07/21 03:03:09;;;;;;;8.43;6.90;;;16.40;99.90;;;;;;5013458;28;20458;-80
2021/07/21 03:05:43;;;;;;;8.60;7.17;;;16.30;99.90;;;;;;5017186;28;21011;-80
2021/07/21 03:08:22;;;;;;;10.60;7.43;;;16.50;99.90;;;;;;5018747;28;20520;-81
2021/07/21 03:10:56;;;;;;;6.47;5.30;;;16.80;99.90;;;;;;5018752;28;20445;-79
2021/07/21 03:13:30;;;;;;;9.70;6.40;;;16.80;99.90;;;;;;5001097;28;20473;-79
2021/07/21 03:16:03;;;;;;;12.07;6.40;;;16.70;99.90;;;;;;5034100;28;20448;-81
2021/07/21 03:18:48;;;;;;;7.93;6.23;;;16.70;99.90;;;;;;5034005;28;20440;-80
2021/07/21 03:21:21;;;;;;;10.77;6.20;;;16.80;99.90;;;;;;5034082;28;20433;-79
2021/07/21 03:23:56;;;;;;;8.27;6.47;;;16.90;99.90;;;;;;5017640;28;20464;-82
2021/07/21 03:26:43;;;;;;;7.77;6.73;;;16.90;99.90;;;;;;5018181;28;20454;-81
2021/07/21 03:29:16;;;;;;;11.57;7.57;;;16.90;99.90;;;;;;5033120;28;20769;-82
2021/07/21 03:31:48;;;;;;;10.83;5.87;;;16.80;99.90;;;;;;5033235;28;20445;-81
2021/07/21 03:34:21;;;;;;;9.53;6.63;;;16.90;99.90;;;;;;5033134;28;20465;-81
2021/07/21 03:36:57;;;;;;;8.67;6.13;;;16.80;99.90;;;;;;5017156;28;20451;-80
2021/07/21 03:39:46;;;;;;;9.57;6.77;;;16.80;99.90;;;;;;5018186;28;20728;-82
2021/07/21 03:42:29;;;;;;;11.20;7.73;;;16.70;99.90;;;;;;5033696;28;20836;-83
2021/07/21 03:45:02;;;;;;;10.63;6.93;;;16.90;99.90;;;;;;5017867;28;20474;-81
2021/07/21 03:47:32;;;;;;;9.40;7.80;;;17.00;99.90;;;;;;5001054;28;20440;-81
2021/07/21 03:50:01;;;;;;;10.77;7.37;;;17.00;99.90;;;;;;5018515;28;20412;-80
2021/07/21 03:52:37;;;;;;;9.40;6.87;;;17.20;99.90;;;;;;5017151;28;20443;-80
2021/07/21 03:55:12;;;;;;;9.87;5.93;;;17.40;99.90;;;;;;5033094;28;20441;-81
2021/07/21 03:57:55;;;;;;;11.13;7.20;;;17.50;99.90;;;;;;5034535;28;20543;-81
2021/07/21 04:00:33;;;;;;;16.37;5.67;;;17.40;99.90;;;;;;5036774;28;20480;-80
2021/07/21 04:03:08;;;;;;;10.20;6.83;;;17.40;99.90;;;;;;5026969;28;20441;-79
2021/07/21 04:05:50;;;;;;;7.97;7.17;;;17.50;99.90;;;;;;5028761;28;20499;-79
2021/07/21 04:08:20;;;;;;;11.43;7.50;;;17.50;99.90;;;;;;5024115;28;20472;-80
2021/07/21 04:10:52;;;;;;;11.73;7.57;;;17.50;99.90;;;;;;5044429;28;20947;-81
2021/07/21 04:13:22;;;;;;;10.90;6.83;;;17.70;99.90;;;;;;5044604;28;20559;-82
2021/07/21 04:16:06;;;;;;;7.93;7.00;;;17.90;99.90;;;;;;5043071;28;20388;-81
2021/07/21 04:18:40;;;;;;;9.57;5.47;;;17.80;99.90;;;;;;5024000;28;20487;-81
2021/07/21 04:21:11;;;;;;;10.50;7.97;;;17.90;99.90;;;;;;5034486;28;20500;-78
2021/07/21 04:23:42;;;;;;;7.87;6.33;;;17.90;99.90;;;;;;5029370;28;20445;-77
2021/07/21 04:26:15;;;;;;;8.83;7.03;;;17.90;99.90;;;;;;5020983;28;20379;-77
2021/07/21 04:28:45;;;;;;;10.77;6.70;;;17.80;99.90;;;;;;5034889;28;20860;-78
2021/07/21 04:31:15;;;;;;;9.53;7.87;;;17.60;99.90;;;;;;5032265;28;20395;-79
2021/07/21 04:33:47;;;;;;;14.43;7.13;;;17.70;99.90;;;;;;5072820;23;20535;-80
2021/07/21 04:36:16;;;;;;;8.10;6.40;;;17.80;99.90;;;;;;5037636;28;20456;-82
2021/07/21 04:38:52;;;;;;;10.40;7.53;;;17.80;99.90;;;;;;5032255;28;20387;-84
2021/07/21 04:41:30;;;;;;;11.33;6.87;;;17.60;99.90;;;;;;5026867;28;20510;-85
2021/07/21 04:44:14;;;;;;;8.80;6.57;;;17.60;99.90;;;;;;5036102;28;20418;-82
2021/07/21 04:46:54;;;;;;;7.87;5.87;;;17.60;99.90;;;;;;5040990;28;20443;-81
2021/07/21 04:49:27;;;;;;;8.70;6.70;;;17.70;99.90;;;;;;5032233;28;20452;-82
2021/07/21 04:52:02;;;;;;;7.80;5.70;;;17.80;99.90;;;;;;5051557;28;20814;-81
2021/07/21 04:54:33;;;;;;;7.73;5.97;;;18.00;99.90;;;;;;5041486;28;20447;-79
2021/07/21 04:57:03;;;;;;;12.80;8.60;;;17.90;99.90;;;;;;5042159;28;20449;-80
2021/07/21 04:59:44;;;;;;;8.20;6.80;;;17.90;99.90;;;;;;5059532;28;20611;-82
2021/07/21 05:02:12;;;;;;;9.60;6.97;;;18.00;99.90;;;;;;5059532;28;20499;-79
2021/07/21 05:04:43;;;;;;;14.67;6.77;;;18.30;99.90;;;;;;5043148;28;20425;-79
2021/07/21 05:07:18;;;;;;;14.53;8.07;;;18.30;99.90;;;;;;5057215;28;20433;-82
2021/07/21 05:09:49;;;;;;;7.40;5.90;;;18.30;99.90;;;;;;5044841;28;20432;-85
2021/07/21 05:12:19;;;;;;;10.10;7.60;;;18.40;99.90;;;;;;5043143;28;20387;-85
2021/07/21 05:14:54;;;;;;;10.73;6.67;;;18.10;99.90;;;;;;5043028;28;20404;-83
2021/07/21 05:17:37;;;;;;;9.93;6.00;;;18.10;99.90;;;;;;5042658;28;20418;-82
2021/07/21 05:20:14;;;;;;;8.90;6.23;;;17.90;99.90;;;;;;5041971;28;20414;-84
2021/07/21 05:22:55;;;;;;;7.33;5.90;;;17.90;99.90;;;;;;5023055;28;20483;-83
2021/07/21 05:25:25;;;;;;;8.70;6.23;;;17.90;99.90;;;;;;5045744;28;20475;-80
2021/07/21 05:28:16;;;;;;;11.77;6.27;;;18.00;99.90;;;;;;5072211;28;20467;-81
2021/07/21 05:30:45;;;;;;;9.93;6.50;;;18.30;99.90;;;;;;5058388;28;20442;-79
2021/07/21 05:33:13;;;;;;;12.63;7.93;;;18.20;99.90;;;;;;5036457;28;20459;-82
2021/07/21 05:35:43;;;;;;;7.53;6.17;;;18.10;99.90;;;;;;5057429;28;20450;-81
2021/07/21 05:38:15;;;;;;;8.43;6.40;;;18.10;99.90;;;;;;5070089;28;20429;-82
2021/07/21 05:40:44;;;;;;;8.13;6.27;;;18.10;99.90;;;;;;5052608;28;20428;-84
2021/07/21 05:43:33;;;;;;;9.73;6.93;;;18.00;99.90;;;;;;5046607;28;20518;-83
2021/07/21 05:46:06;;;;;;;8.53;6.63;;;18.20;99.90;;;;;;5040553;28;20406;-82
2021/07/21 05:48:39;;;;;;;9.90;7.13;;;18.20;99.90;;;;;;5040710;28;20450;-82
2021/07/21 05:51:38;;;;;;;11.43;5.57;;;18.50;99.90;;;;;;5028861;28;20437;-81
2021/07/21 05:54:18;;;;;;;7.70;6.30;;;18.50;99.90;;;;;;5042162;28;20519;-83
2021/07/21 05:56:46;;;;;;;7.80;6.40;;;18.30;99.90;;;;;;5042251;28;20407;-81
2021/07/21 05:59:24;;;;;;;9.40;7.83;;;18.40;99.90;;;;;;5043586;28;20534;-83
2021/07/21 06:01:52;;;;;;;8.57;6.57;;;18.60;99.90;;;;;;5059704;28;20422;-85
2021/07/21 06:04:22;;;;;;;10.60;5.90;;;18.80;99.90;;;;;;5033686;28;20430;-82
2021/07/21 06:07:10;;;;;;;7.77;6.20;;;18.80;99.90;;;;;;5041426;28;20410;-83
2021/07/21 06:09:59;;;;;;;7.90;6.30;;;18.80;99.90;;;;;;5042104;28;20527;-84
2021/07/21 06:12:34;;;;;;;11.00;6.90;;;18.80;99.90;;;;;;5024099;28;20441;-83
2021/07/21 06:15:05;;;;;;;9.47;7.40;;;18.70;99.90;;;;;;5023723;28;20463;-84
2021/07/21 06:17:35;;;;;;;10.13;6.90;;;18.80;99.90;;;;;;5042595;28;20527;-84
2021/07/21 06:20:07;;;;;;;8.80;7.33;;;19.20;99.90;;;;;;5044456;28;20495;-84
2021/07/21 06:22:43;;;;;;;6.73;5.30;;;19.20;99.90;;;;;;5041440;28;20446;-82
2021/07/21 06:25:21;;;;;;;8.00;5.57;;;19.50;99.90;;;;;;5043844;28;20420;-83
2021/07/21 06:28:19;;;;;;;8.70;5.77;;;19.70;99.90;;;;;;5025937;28;20518;-86
2021/07/21 06:30:47;;;;;;;9.10;7.63;;;19.60;99.90;;;;;;5041899;28;20395;-80
2021/07/21 06:33:23;;;;;;;9.33;6.90;;;19.80;99.90;;;;;;5041341;28;20491;-83
2021/07/21 06:35:52;;;;;;;7.57;5.30;;;20.00;99.90;;;;;;5042365;28;20421;-83
2021/07/21 06:38:28;;;;;;;10.13;5.87;;;19.80;99.90;;;;;;5044119;28;20405;-83
2021/07/21 06:41:13;;;;;;;8.30;7.10;;;20.00;99.90;;;;;;5040597;28;21028;-84
2021/07/21 06:43:43;;;;;;;8.60;5.70;;;20.00;99.90;;;;;;5040822;28;20480;-84
2021/07/21 06:46:18;;;;;;;10.20;6.90;;;20.30;99.90;;;;;;5044011;28;20408;-84
2021/07/21 06:48:55;;;;;;;7.47;5.87;;;20.60;99.90;;;;;;5032484;28;20478;-83
2021/07/21 06:51:27;;;;;;;8.70;4.43;;;20.90;99.90;;;;;;5051100;28;20433;-82
2021/07/21 06:53:56;;;;;;;7.37;5.50;;;21.30;99.90;;;;;;5051801;28;20421;-83
2021/07/21 06:56:25;;;;;;;6.43;4.63;;;21.40;99.90;;;;;;5053061;28;20417;-80
2021/07/21 06:59:19;;;;;;;9.60;6.37;;;21.30;99.90;;;;;;5038020;28;20436;-83
2021/07/21 07:01:47;;;;;;;9.93;5.37;;;21.40;99.90;;;;;;5048373;28;20434;-85
2021/07/21 07:04:42;;;;;;;7.10;5.60;;;21.50;99.90;;;;;;5038476;28;20479;-83
2021/07/21 07:07:29;;;;;;;8.17;5.77;;;21.60;99.90;;;;;;5040129;28;20494;-82
2021/07/21 07:10:18;;;;;;;7.10;5.10;;;21.20;99.90;;;;;;5041014;28;20486;-82
2021/07/21 07:12:47;;;;;;;6.90;5.07;;;21.40;99.90;;;;;;5039258;28;20494;-81
2021/07/21 07:15:15;;;;;;;6.73;5.47;;;21.30;99.90;;;;;;5041083;28;20399;-83
2021/07/21 07:17:45;;;;;;;6.00;4.67;;;21.30;99.90;;;;;;5040059;28;20470;-85
2021/07/21 07:20:13;;;;;;;11.73;5.37;;;21.10;99.90;;;;;;5042840;28;20416;-83
2021/07/21 07:22:42;;;;;;;7.73;5.33;;;21.20;99.90;;;;;;5043066;28;20932;-83
2021/07/21 07:25:10;;;;;;;7.30;4.87;;;20.90;99.90;;;;;;5041773;28;20409;-83
2021/07/21 07:27:40;;;;;;;7.37;6.20;;;20.80;99.90;;;;;;5043558;28;20432;-82
2021/07/21 07:30:10;;;;;;;8.00;5.47;;;20.80;99.90;;;;;;5044267;28;20504;-83
2021/07/21 07:32:39;;;;;;;7.10;6.00;;;21.10;99.90;;;;;;5044936;28;20424;-85
2021/07/21 07:35:07;;;;;;;6.60;6.00;;;21.00;99.90;;;;;;5041594;28;20432;-84
2021/07/21 07:37:35;;;;;;;10.70;5.67;;;21.10;99.90;;;;;;5044624;28;20403;-82
2021/07/21 07:40:05;;;;;;;5.33;4.60;;;21.20;99.90;;;;;;5045286;28;20420;-84
2021/07/21 07:42:33;;;;;;;7.60;5.30;;;21.30;99.90;;;;;;5047077;28;20386;-80
2021/07/21 07:45:04;;;;;;;7.20;5.70;;;21.40;99.90;;;;;;5048134;28;20431;-81
2021/07/21 07:47:35;;;;;;;7.80;5.67;;;21.70;99.90;;;;;;5032400;28;20414;-83
2021/07/21 07:50:04;;;;;;;8.90;5.57;;;21.60;99.90;;;;;;5042424;28;20451;-84
2021/07/21 07:52:33;;;;;;;6.43;4.80;;;21.80;99.90;;;;;;5040046;28;20420;-83
2021/07/21 07:55:02;;;;;;;10.17;6.60;;;22.10;99.90;;;;;;5039293;28;20416;-84
2021/07/21 07:57:30;;;;;;;8.20;6.27;;;22.10;99.90;;;;;;5042696;28;20393;-81
2021/07/21 07:59:58;;;;;;;7.00;5.70;;;22.10;99.90;;;;;;5052130;28;20403;-81
2021/07/21 08:02:28;;;;;;;8.23;5.50;;;22.30;99.90;;;;;;5050998;28;20394;-81
2021/07/21 08:04:56;;;;;;;7.93;5.40;;;22.20;99.90;;;;;;5049552;28;20406;-80
2021/07/21 08:07:25;;;;;;;11.23;5.83;;;22.10;99.90;;;;;;5052733;28;20478;-84
2021/07/21 08:09:54;;;;;;;8.00;6.57;;;22.20;99.90;;;;;;5044897;28;20455;-85
2021/07/21 08:12:22;;;;;;;7.10;5.57;;;22.10;99.90;;;;;;5036734;28;20406;-83
2021/07/21 08:14:50;;;;;;;8.07;6.03;;;22.40;99.90;;;;;;5043244;28;20510;-84
2021/07/21 08:17:18;;;;;;;6.57;4.50;;;22.40;99.90;;;;;;5042604;28;20420;-82
2021/07/21 08:19:48;;;;;;;10.30;4.30;;;22.40;99.90;;;;;;5045139;28;20395;-82
2021/07/21 08:22:16;;;;;;;6.37;4.50;;;22.30;99.90;;;;;;5046394;28;20658;-83
2021/07/21 08:24:44;;;;;;;4.67;3.30;;;22.50;99.90;;;;;;5049142;28;20451;-82
2021/07/21 08:27:12;;;;;;;8.10;4.03;;;22.20;99.90;;;;;;5048690;28;20406;-80
2021/07/21 08:29:41;;;;;;;6.60;3.57;;;22.00;99.90;;;;;;5047517;28;20437;-80
2021/07/21 08:32:09;;;;;;;4.50;4.07;;;22.10;99.90;;;;;;5053260;28;20941;-84
2021/07/21 08:34:38;;;;;;;6.37;4.70;;;22.10;99.90;;;;;;5056345;28;20448;-84
2021/07/21 08:37:07;;;;;;;5.37;4.23;;;22.00;99.90;;;;;;5056562;28;20410;-80
2021/07/21 08:39:36;;;;;;;6.47;5.00;;;22.10;99.90;;;;;;5056996;28;20375;-79
2021/07/21 08:42:06;;;;;;;7.20;5.40;;;22.30;99.90;;;;;;5057054;28;20441;-81
2021/07/21 08:44:35;;;;;;;5.63;4.73;;;22.60;99.90;;;;;;5055818;28;20441;-80
2021/07/21 08:47:03;;;;;;;11.90;6.03;;;22.50;99.90;;;;;;5051435;28;20428;-83
2021/07/21 08:49:31;;;;;;;5.97;4.30;;;22.20;99.90;;;;;;5040504;28;20494;-84
2021/07/21 08:52:02;;;;;;;6.67;5.50;;;22.10;99.90;;;;;;5037141;28;20463;-84
2021/07/21 08:54:33;;;;;;;7.47;5.07;;;21.90;99.90;;;;;;5039948;28;20567;-82
2021/07/21 08:57:02;;;;;;;7.60;4.97;;;21.70;99.90;;;;;;5040044;28;20409;-84
2021/07/21 08:59:31;;;;;;;7.20;5.20;;;21.70;99.90;;;;;;5038502;28;20375;-84
2021/07/21 09:01:59;;;;;;;6.23;4.20;;;21.60;99.90;;;;;;5039050;28;20403;-86
2021/07/21 09:04:28;;;;;;;7.57;5.40;;;21.80;99.90;;;;;;5040895;28;20422;-84
2021/07/21 09:06:56;;;;;;;5.63;4.70;;;21.90;99.90;;;;;;5042963;28;20423;-87
2021/07/21 09:09:24;;;;;;;7.23;5.33;;;22.20;99.90;;;;;;5043862;28;20457;-81
2021/07/21 09:11:57;;;;;;;7.30;4.80;;;22.40;99.90;;;;;;5040198;28;20399;-83
2021/07/21 09:14:25;;;;;;;8.87;4.80;;;22.40;99.90;;;;;;5023179;28;20430;-83
2021/07/21 09:17:07;;;;;;;8.07;4.53;;;22.80;99.90;;;;;;5042554;28;20422;-84
2021/07/21 09:19:37;;;;;;;6.13;4.77;;;22.70;99.90;;;;;;5043099;28;20408;-82
2021/07/21 09:22:17;;;;;;;4.73;3.50;;;23.00;99.90;;;;;;5044089;28;20419;-84
2021/07/21 09:24:46;;;;;;;5.03;3.83;;;23.30;99.90;;;;;;5041206;28;20555;-85
2021/07/21 09:27:16;;;;;;;4.00;3.30;;;23.60;99.90;;;;;;5040115;28;20478;-81
2021/07/21 09:29:44;;;;;;;6.53;3.83;;;23.60;99.90;;;;;;5040600;28;20840;-83
2021/07/21 09:32:12;;;;;;;5.67;3.70;;;23.40;99.90;;;;;;5047661;28;20993;-81
2021/07/21 09:34:41;;;;;;;5.70;3.67;;;23.70;99.90;;;;;;5038967;28;20464;-83
2021/07/21 09:37:12;;;;;;;4.87;3.97;;;23.70;99.90;;;;;;5039680;28;20410;-84
2021/07/21 09:39:42;;;;;;;6.63;4.17;;;24.30;99.90;;;;;;5035306;28;20559;-84
2021/07/21 09:42:12;;;;;;;5.23;4.33;;;24.60;99.90;;;;;;5027247;28;20449;-82
2021/07/21 09:44:45;;;;;;;3.13;2.63;;;24.50;99.90;;;;;;5020703;28;20519;-84
2021/07/21 09:47:16;;;;;;;4.67;3.17;;;24.40;99.90;;;;;;5020106;28;20421;-82
2021/07/21 09:49:45;;;;;;;6.13;4.20;;;24.10;99.90;;;;;;5030598;28;20468;-83
2021/07/21 09:52:20;;;;;;;6.50;3.50;;;24.30;99.90;;;;;;5034131;28;20402;-83
2021/07/21 09:55:05;;;;;;;3.87;2.90;;;24.70;99.90;;;;;;5038417;28;20447;-82
2021/07/21 09:57:36;;;;;;;8.17;3.17;;;24.90;99.90;;;;;;5040821;28;20497;-83
2021/07/21 10:00:23;;;;;;;4.23;2.83;;;24.60;99.90;;;;;;5022132;28;21218;-81
2021/07/21 10:03:05;;;;;;;5.40;2.33;;;24.20;99.90;;;;;;5038312;28;20471;-82
2021/07/21 10:05:34;;;;;;;2.73;1.93;;;23.50;99.90;;;;;;5037831;28;20439;-80
2021/07/21 10:08:03;;;;;;;2.83;2.00;;;23.40;99.90;;;;;;5037739;28;20839;-82
2021/07/21 10:10:32;;;;;;;3.00;2.20;;;23.70;99.90;;;;;;5038075;28;20456;-83
2021/07/21 10:13:02;;;;;;;3.43;1.90;;;23.70;99.90;;;;;;5037034;28;21027;-82
2021/07/21 10:15:32;;;;;;;2.80;2.20;;;24.00;99.90;;;;;;5039827;28;20509;-82
2021/07/21 10:18:09;;;;;;;3.93;1.93;;;24.10;99.90;;;;;;5046064;28;20433;-84
2021/07/21 10:20:38;;;;;;;3.10;2.37;;;24.20;99.90;;;;;;5048964;28;20434;-84
2021/07/21 10:23:08;;;;;;;3.50;2.43;;;24.20;99.90;;;;;;5030731;28;20452;-83
2021/07/21 10:25:36;;;;;;;3.20;1.97;;;24.30;99.90;;;;;;5032074;28;20455;-85
2021/07/21 10:28:05;;;;;;;3.90;2.60;;;24.90;99.90;;;;;;5052804;28;20420;-83
2021/07/21 10:30:37;;;;;;;2.20;1.70;;;24.90;99.90;;;;;;5052229;28;20438;-84
2021/07/21 10:33:07;;;;;;;5.60;2.40;;;24.70;99.90;;;;;;5067787;23;20459;31
2021/07/21 10:35:35;;;;;;;3.03;2.00;;;24.80;99.90;;;;;;4973677;28;20506;-70
2021/07/21 10:38:04;;;;;;;3.43;2.47;;;24.50;99.90;;;;;;4992854;28;20975;-70
2021/07/21 10:40:35;;;;;;;2.97;2.40;;;24.50;99.90;;;;;;4982656;28;20456;-70
2021/07/21 10:43:04;;;;;;;3.20;2.77;;;24.50;99.90;;;;;;5009279;28;20491;-70
2021/07/21 10:45:36;;;;;;;3.43;2.20;;;24.00;99.90;;;;;;4992421;28;20396;-70
2021/07/21 10:48:13;;;;;;;3.30;2.40;;;23.40;99.90;;;;;;5008751;28;20507;-70
2021/07/21 10:50:49;;;;;;;3.70;1.60;;;23.40;99.90;;;;;;4994000;28;20468;-71
2021/07/21 10:53:53;;;;;;;3.47;2.70;;;23.40;99.90;;;;;;5011123;28;20569;-70
2021/07/21 10:59:16;;;;;;;3.40;2.80;;;24.20;99.90;;;;;;4994364;28;20457;-70
2021/07/21 11:01:48;;;;;;;2.70;2.37;;;24.30;99.90;;;;;;4994266;28;20431;-70
2021/07/21 11:04:17;;;;;;;4.40;2.87;;;24.80;99.90;;;;;;5012358;28;20920;-70
2021/07/21 11:06:47;;;;;;;3.30;2.20;;;25.10;99.90;;;;;;4994042;28;20457;-71
2021/07/21 11:09:22;;;;;;;3.30;2.20;;;25.50;99.90;;;;;;5011261;28;20421;-70
2021/07/21 11:11:54;;;;;;;3.20;2.13;;;25.70;99.90;;;;;;4993812;28;20476;-70
2021/07/21 11:14:25;;;;;;;3.93;3.00;;;25.90;99.90;;;;;;4994486;28;20443;-70
2021/07/21 11:16:56;;;;;;;3.10;2.47;;;25.50;99.90;;;;;;4993774;28;20437;-70
2021/07/21 11:19:38;;;;;;;5.20;2.17;;;25.10;99.90;;;;;;5010812;28;20499;-70
2021/07/21 11:22:09;;;;;;;4.20;2.70;;;25.20;99.90;;;;;;4994298;28;20483;-70
2021/07/21 11:25:04;;;;;;;4.60;2.60;;;24.70;99.90;;;;;;5010847;28;20611;-70
2021/07/21 11:27:41;;;;;;;3.43;2.30;;;24.00;99.90;;;;;;4990536;28;20446;-70
2021/07/21 11:30:35;;;;;;;4.63;2.30;;;23.40;99.90;;;;;;5002642;28;20461;-70
2021/07/21 11:33:44;;;;;;;4.20;2.60;;;22.90;99.90;;;;;;4992140;28;20427;-70
2021/07/21 11:36:33;;;;;;;5.37;2.90;;;22.90;99.90;;;;;;4989688;28;20436;-71
2021/07/21 11:39:01;;;;;;;2.80;2.43;;;23.00;99.90;;;;;;4991150;28;20420;-71
2021/07/21 11:41:49;;;;;;;3.47;2.53;;;23.00;99.90;;;;;;4974456;28;20549;-71
2021/07/21 11:44:26;;;;;;;3.10;2.30;;;23.20;99.90;;;;;;4990677;28;20460;-70
2021/07/21 11:46:55;;;;;;;2.63;2.07;;;23.00;99.90;;;;;;4974737;28;20433;-71
2021/07/21 11:49:27;;;;;;;3.93;2.37;;;22.70;99.90;;;;;;4990554;28;20446;-71
2021/07/21 11:51:58;;;;;;;3.07;2.30;;;22.70;99.90;;;;;;4990863;28;20447;-71
2021/07/21 11:54:28;;;;;;;3.93;2.63;;;22.80;99.90;;;;;;4974464;28;20488;-70
2021/07/21 11:56:59;;;;;;;3.57;2.53;;;23.00;99.90;;;;;;4974542;28;20975;-70
2021/07/21 11:59:32;;;;;;;4.40;3.03;;;22.90;99.90;;;;;;4974506;28;20459;-70
2021/07/21 12:02:05;;;;;;;5.20;3.07;;;22.70;99.90;;;;;;4974394;28;20420;-70
2021/07/21 12:04:36;;;;;;;2.93;2.63;;;22.50;99.90;;;;;;4982016;28;20435;-69
2021/07/21 12:07:06;;;;;;;4.10;2.80;;;22.30;99.90;;;;;;5009720;28;20423;-70
2021/07/21 12:09:35;;;;;;;3.40;2.60;;;22.50;99.90;;;;;;5011044;28;20397;-70
2021/07/21 12:12:07;;;;;;;2.90;2.40;;;22.60;99.90;;;;;;4993657;28;21014;-71
2021/07/21 12:14:37;;;;;;;3.60;2.40;;;22.60;99.90;;;;;;5010168;28;20415;-71
2021/07/21 12:17:08;;;;;;;3.57;2.83;;;22.60;99.90;;;;;;4993780;28;20445;-70
2021/07/21 12:19:38;;;;;;;5.87;2.73;;;22.60;99.90;;;;;;4990390;28;20449;-71
2021/07/21 12:22:09;;;;;;;3.00;2.63;;;22.60;99.90;;;;;;4974787;28;20416;-70
2021/07/21 12:24:40;;;;;;;4.03;2.70;;;22.50;99.90;;;;;;4990903;28;20453;-71
2021/07/21 12:27:10;;;;;;;3.20;2.43;;;22.60;99.90;;;;;;5006512;28;20939;-69
2021/07/21 12:29:41;;;;;;;7.07;2.40;;;22.40;99.90;;;;;;5012426;28;21175;-71
2021/07/21 12:32:11;;;;;;;2.90;2.20;;;22.30;99.90;;;;;;4998562;28;20497;-71
2021/07/21 12:34:47;;;;;;;4.10;2.80;;;22.30;99.90;;;;;;4999234;28;20427;-71
2021/07/21 12:37:17;;;;;;;3.77;2.67;;;22.30;99.90;;;;;;5018403;28;20421;-70
2021/07/21 12:39:47;;;;;;;3.93;3.00;;;22.30;99.90;;;;;;5002934;28;20421;-72
2021/07/21 12:42:17;;;;;;;2.70;2.00;;;22.40;99.90;;;;;;5002688;28;20411;-71
2021/07/21 12:44:47;;;;;;;5.20;3.23;;;22.40;99.90;;;;;;5015007;28;20395;-70
2021/07/21 12:47:18;;;;;;;4.80;2.20;;;22.40;99.90;;;;;;4997164;28;20469;-70
2021/07/21 12:49:50;;;;;;;5.47;2.63;;;22.50;99.90;;;;;;5012131;28;20491;-67
2021/07/21 12:52:43;;;;;;;3.63;3.10;;;22.60;99.90;;;;;;5014523;28;20512;-69
2021/07/21 12:55:14;;;;;;;3.47;2.57;;;22.60;99.90;;;;;;5011924;28;20808;-70
2021/07/21 12:57:44;;;;;;;5.10;2.87;;;22.50;99.90;;;;;;5013096;28;20428;-70
2021/07/21 13:00:19;;;;;;;3.90;2.87;;;22.50;99.90;;;;;;5012269;28;20922;-69
2021/07/21 13:02:58;;;;;;;6.03;3.83;;;22.60;99.90;;;;;;5012834;28;20451;-68
2021/07/21 13:05:52;;;;;;;5.67;3.40;;;22.60;99.90;;;;;;5009370;28;20416;-70
2021/07/21 13:08:22;;;;;;;6.23;4.13;;;22.70;99.90;;;;;;5012867;28;20421;-70
2021/07/21 13:11:00;;;;;;;4.67;3.40;;;22.70;99.90;;;;;;5012406;28;20985;-70
2021/07/21 13:13:30;;;;;;;7.20;2.50;;;23.00;99.90;;;;;;5013286;28;20403;-70
2021/07/21 13:16:01;;;;;;;4.63;2.57;;;23.10;99.90;;;;;;5011209;28;20767;-71
2021/07/21 13:18:31;;;;;;;3.73;2.90;;;23.20;99.90;;;;;;5013097;28;20403;-71
2021/07/21 13:21:18;;;;;;;4.20;3.00;;;23.20;99.90;;;;;;5012496;28;20415;-71
2021/07/21 13:23:46;;;;;;;5.47;2.87;;;22.80;99.90;;;;;;5012750;28;20399;-72